createdAt,value
2017-11-20T00:01:11.648Z,2.18
2017-11-20T00:03:41.027Z,2.19
2017-11-20T00:06:08.764Z,2.12
2017-11-20T00:08:36.423Z,2.13
2017-11-20T00:11:03.971Z,2.13
2017-11-20T00:13:31.566Z,2.10
2017-11-20T00:15:59.131Z,2.14
2017-11-20T00:18:26.687Z,2.13
2017-11-20T00:20:54.276Z,2.13
2017-11-20T00:23:22.008Z,2.11
2017-11-20T00:25:49.567Z,2.13
2017-11-20T00:28:17.116Z,2.14
2017-11-20T00:30:44.677Z,2.13
2017-11-20T00:33:12.220Z,2.16
2017-11-20T00:35:39.809Z,2.11
2017-11-20T00:38:07.378Z,2.24
2017-11-20T00:40:34.936Z,2.20
2017-11-20T00:43:02.491Z,2.20
2017-11-20T00:45:30.439Z,2.18
2017-11-20T00:47:58.025Z,2.13
2017-11-20T00:50:25.604Z,2.13
2017-11-20T00:52:53.142Z,2.11
2017-11-20T00:55:20.720Z,2.07
2017-11-20T00:57:48.264Z,2.07
2017-11-20T01:00:16.965Z,2.04
2017-11-20T01:02:44.552Z,2.05
2017-11-20T01:05:12.112Z,2.04
2017-11-20T01:07:39.647Z,2.01
2017-11-20T01:10:07.231Z,2.07
2017-11-20T01:12:34.768Z,2.03
2017-11-20T01:15:02.355Z,2.00
2017-11-20T01:17:29.958Z,2.01
2017-11-20T01:19:57.518Z,2.00
2017-11-20T01:22:25.073Z,2.00
2017-11-20T01:24:52.619Z,1.99
2017-11-20T01:27:20.195Z,1.99
2017-11-20T01:29:47.753Z,2.04
2017-11-20T01:32:15.304Z,2.21
2017-11-20T01:34:42.904Z,2.18
2017-11-20T01:37:10.466Z,2.16
2017-11-20T01:39:38.027Z,2.13
2017-11-20T01:42:05.613Z,2.15
2017-11-20T01:44:33.174Z,2.14
2017-11-20T01:47:00.737Z,2.10
2017-11-20T01:49:28.339Z,2.02
2017-11-20T01:51:55.903Z,1.97
2017-11-20T01:54:23.476Z,1.88
2017-11-20T01:56:51.065Z,1.96
2017-11-20T01:59:18.754Z,1.91
2017-11-20T02:01:46.314Z,1.93
2017-11-20T02:04:13.921Z,1.96
2017-11-20T02:06:41.478Z,1.88
2017-11-20T02:09:09.070Z,1.90
2017-11-20T02:11:36.933Z,1.92
2017-11-20T02:14:04.537Z,2.00
2017-11-20T02:16:32.099Z,2.01
2017-11-20T02:18:59.655Z,1.93
2017-11-20T02:21:27.240Z,1.89
2017-11-20T02:23:54.786Z,1.91
2017-11-20T02:26:22.360Z,1.91
2017-11-20T02:28:49.998Z,1.89
2017-11-20T02:31:17.603Z,1.93
2017-11-20T02:33:45.227Z,1.94
2017-11-20T02:36:12.901Z,1.83
2017-11-20T02:38:40.492Z,1.91
2017-11-20T02:41:08.288Z,1.89
2017-11-20T02:43:35.887Z,1.83
2017-11-20T02:46:03.442Z,1.85
2017-11-20T02:48:31.027Z,1.89
2017-11-20T02:50:58.638Z,1.96
2017-11-20T02:53:26.190Z,1.89
2017-11-20T02:55:53.744Z,1.91
2017-11-20T02:58:21.823Z,1.90
2017-11-20T03:00:49.882Z,1.88
2017-11-20T03:03:17.445Z,1.83
2017-11-20T03:05:45.012Z,1.78
2017-11-20T03:08:14.871Z,1.83
2017-11-20T03:10:42.482Z,1.87
2017-11-20T03:13:10.107Z,1.85
2017-11-20T03:15:37.760Z,1.81
2017-11-20T03:18:08.685Z,1.56
2017-11-20T03:20:36.251Z,1.74
2017-11-20T03:23:03.875Z,1.68
2017-11-20T03:25:31.536Z,1.82
2017-11-20T03:27:59.110Z,1.89
2017-11-20T03:30:26.740Z,1.92
2017-11-20T03:32:54.495Z,2.07
2017-11-20T03:35:22.068Z,2.11
2017-11-20T03:37:49.627Z,2.16
2017-11-20T03:40:17.220Z,2.14
2017-11-20T03:42:44.797Z,2.01
2017-11-20T03:45:12.696Z,2.04
2017-11-20T03:47:40.289Z,2.11
2017-11-20T03:50:07.846Z,2.17
2017-11-20T03:52:35.421Z,2.13
2017-11-20T03:55:02.969Z,2.09
2017-11-20T03:57:30.523Z,2.12
2017-11-20T03:59:58.105Z,2.08
2017-11-20T04:02:25.645Z,2.05
2017-11-20T04:04:53.194Z,1.99
2017-11-20T04:07:20.816Z,2.01
2017-11-20T04:09:48.395Z,2.06
2017-11-20T04:12:15.994Z,2.05
2017-11-20T04:14:43.558Z,2.08
2017-11-20T04:17:11.206Z,2.09
2017-11-20T04:19:38.757Z,2.05
2017-11-20T04:22:06.339Z,2.07
2017-11-20T04:24:33.874Z,2.02
2017-11-20T04:27:01.423Z,2.05
2017-11-20T04:29:29.050Z,2.05
2017-11-20T04:31:56.616Z,2.08
2017-11-20T04:34:24.172Z,2.01
2017-11-20T04:36:51.750Z,1.96
2017-11-20T04:39:19.334Z,1.94
2017-11-20T04:41:46.896Z,1.92
2017-11-20T04:44:14.498Z,1.89
2017-11-20T04:46:42.045Z,1.88
2017-11-20T04:49:09.894Z,1.91
2017-11-20T04:51:37.587Z,1.90
2017-11-20T04:54:05.375Z,1.66
2017-11-20T04:56:32.948Z,1.92
2017-11-20T04:59:00.508Z,1.89
2017-11-20T05:01:28.067Z,1.91
2017-11-20T05:03:55.608Z,1.89
2017-11-20T05:06:23.513Z,1.93
2017-11-20T05:08:51.092Z,1.94
2017-11-20T05:11:18.643Z,2.01
2017-11-20T05:13:46.194Z,1.98
2017-11-20T05:16:13.779Z,2.03
2017-11-20T05:18:41.347Z,2.01
2017-11-20T05:21:09.060Z,2.02
2017-11-20T05:23:36.651Z,1.99
2017-11-20T05:26:04.216Z,1.98
2017-11-20T05:28:31.793Z,1.92
2017-11-20T05:30:59.327Z,1.91
2017-11-20T05:33:27.091Z,1.94
2017-11-20T05:35:54.643Z,1.94
2017-11-20T05:38:23.137Z,1.96
2017-11-20T05:40:50.731Z,1.96
2017-11-20T05:43:18.266Z,1.97
2017-11-20T05:45:46.397Z,1.96
2017-11-20T05:48:14.086Z,1.94
2017-11-20T05:50:41.632Z,1.95
2017-11-20T05:53:09.605Z,1.94
2017-11-20T05:55:37.284Z,1.90
2017-11-20T05:58:04.825Z,1.91
2017-11-20T06:00:32.408Z,1.89
2017-11-20T06:02:59.982Z,1.86
2017-11-20T06:05:27.554Z,1.90
2017-11-20T06:07:55.124Z,1.89
2017-11-20T06:10:22.675Z,1.86
2017-11-20T06:12:50.236Z,1.85
2017-11-20T06:15:17.825Z,1.89
2017-11-20T06:17:45.384Z,1.89
2017-11-20T06:20:12.943Z,1.87
2017-11-20T06:22:40.513Z,1.85
2017-11-20T06:25:08.139Z,1.84
2017-11-20T06:27:35.699Z,1.88
2017-11-20T06:30:03.330Z,1.95
2017-11-20T06:32:30.871Z,1.94
2017-11-20T06:34:58.446Z,1.93
2017-11-20T06:37:26.109Z,1.96
2017-11-20T06:39:53.671Z,1.94
2017-11-20T06:42:21.243Z,1.94
2017-11-20T06:47:20.618Z,2.13
2017-11-20T06:49:48.180Z,2.10
2017-11-20T06:52:15.759Z,2.13
2017-11-20T06:54:43.331Z,2.16
2017-11-20T06:57:11.665Z,2.23
2017-11-20T06:59:39.251Z,2.29
2017-11-20T07:02:06.819Z,2.28
2017-11-20T07:04:34.364Z,2.29
2017-11-20T07:07:01.896Z,2.31
2017-11-20T07:09:29.536Z,2.31
2017-11-20T07:11:57.095Z,2.40
2017-11-20T07:14:24.678Z,2.44
2017-11-20T07:16:52.311Z,2.44
2017-11-20T07:19:19.859Z,2.45
2017-11-20T07:21:47.427Z,2.50
2017-11-20T07:24:14.997Z,2.49
2017-11-20T07:26:54.263Z,2.50
2017-11-20T07:29:33.834Z,2.61
2017-11-20T07:32:01.405Z,2.65
2017-11-20T07:34:40.718Z,2.58
2017-11-20T07:37:19.942Z,2.53
2017-11-20T07:39:59.240Z,2.46
2017-11-20T07:42:26.795Z,2.40
2017-11-20T07:44:54.336Z,2.44
2017-11-20T07:47:21.911Z,2.47
2017-11-20T07:49:51.138Z,2.55
2017-11-20T07:52:18.682Z,2.66
2017-11-20T07:54:46.295Z,2.76
2017-11-20T07:57:16.780Z,2.79
2017-11-20T07:59:44.418Z,2.80
2017-11-20T08:02:11.992Z,2.83
2017-11-20T08:04:39.527Z,2.87
2017-11-20T08:07:07.087Z,2.89
2017-11-20T08:09:34.680Z,2.97
2017-11-20T08:12:02.270Z,3.02
2017-11-20T08:14:30.564Z,3.02
2017-11-20T08:16:58.182Z,3.04
2017-11-20T08:19:25.903Z,3.15
2017-11-20T08:21:53.452Z,3.28
2017-11-20T08:24:21.920Z,3.45
2017-11-20T08:26:49.504Z,3.64
2017-11-20T08:29:17.120Z,3.65
2017-11-20T08:31:44.700Z,3.56
2017-11-20T08:34:12.313Z,3.51
2017-11-20T08:36:40.296Z,3.41
2017-11-20T08:39:07.994Z,3.48
2017-11-20T08:41:35.644Z,3.40
2017-11-20T08:44:03.198Z,3.37
2017-11-20T08:46:30.748Z,3.47
2017-11-20T08:48:58.344Z,3.41
2017-11-20T08:51:25.936Z,3.37
2017-11-20T08:53:53.494Z,3.40
2017-11-20T08:56:21.708Z,3.33
2017-11-20T08:58:49.531Z,3.41
2017-11-20T09:01:17.801Z,3.35
2017-11-20T09:03:45.387Z,3.37
2017-11-20T09:06:12.962Z,3.33
2017-11-20T09:08:40.531Z,3.25
2017-11-20T09:11:08.170Z,3.25
2017-11-20T09:13:35.758Z,3.21
2017-11-20T09:16:03.354Z,3.25
2017-11-20T09:18:30.948Z,3.29
2017-11-20T09:20:58.644Z,3.19
2017-11-20T09:23:26.345Z,3.18
2017-11-20T09:25:53.931Z,3.14
2017-11-20T09:28:21.527Z,3.15
2017-11-20T09:30:49.086Z,3.19
2017-11-20T09:33:16.752Z,3.22
2017-11-20T09:35:44.298Z,3.28
2017-11-20T09:38:11.872Z,3.23
2017-11-20T09:40:39.484Z,3.26
2017-11-20T09:43:07.045Z,3.21
2017-11-20T09:45:34.743Z,3.40
2017-11-20T09:48:02.313Z,3.55
2017-11-20T09:50:29.878Z,3.63
2017-11-20T09:52:57.452Z,3.52
2017-11-20T09:55:25.044Z,3.54
2017-11-20T09:57:52.611Z,3.75
2017-11-20T10:00:20.227Z,3.79
2017-11-20T10:02:47.847Z,3.85
2017-11-20T10:05:15.419Z,4.00
2017-11-20T10:07:42.995Z,4.11
2017-11-20T10:10:10.618Z,3.95
2017-11-20T10:12:38.165Z,3.82
2017-11-20T10:15:05.757Z,3.79
2017-11-20T10:17:34.111Z,3.85
2017-11-20T10:20:01.698Z,3.92
2017-11-20T10:22:29.260Z,3.80
2017-11-20T10:24:56.810Z,3.80
2017-11-20T10:27:24.450Z,3.89
2017-11-20T10:29:52.003Z,3.91
2017-11-20T10:32:19.560Z,3.86
2017-11-20T10:34:47.137Z,3.84
2017-11-20T10:37:14.706Z,3.90
2017-11-20T10:39:42.281Z,3.75
2017-11-20T10:42:09.866Z,3.59
2017-11-20T10:44:37.423Z,3.56
2017-11-20T10:47:05.030Z,3.60
2017-11-20T10:49:32.747Z,3.53
2017-11-20T10:52:00.357Z,3.56
2017-11-20T10:54:27.949Z,3.57
2017-11-20T10:56:55.517Z,3.59
2017-11-20T10:59:24.030Z,3.56
2017-11-20T11:01:58.621Z,3.49
2017-11-20T11:04:26.348Z,3.40
2017-11-20T11:06:53.930Z,3.41
2017-11-20T11:09:21.941Z,3.36
2017-11-20T11:11:49.530Z,3.22
2017-11-20T11:14:17.155Z,3.20
2017-11-20T11:16:44.735Z,3.22
2017-11-20T11:19:12.303Z,3.28
2017-11-20T11:21:40.461Z,3.42
2017-11-20T11:24:08.025Z,3.56
2017-11-20T11:26:35.622Z,3.62
2017-11-20T11:29:03.311Z,3.55
2017-11-20T11:31:31.565Z,3.60
2017-11-20T11:33:59.139Z,3.62
2017-11-20T11:36:26.726Z,3.57
2017-11-20T11:38:54.310Z,3.56
2017-11-20T11:41:21.892Z,3.54
2017-11-20T11:43:49.491Z,3.58
2017-11-20T11:46:18.416Z,3.64
2017-11-20T11:48:46.016Z,3.92
2017-11-20T11:51:13.612Z,4.06
2017-11-20T11:53:41.206Z,4.24
2017-11-20T11:56:08.796Z,4.32
2017-11-20T11:58:36.443Z,4.26
2017-11-20T12:01:04.049Z,4.28
2017-11-20T12:03:31.625Z,3.98
2017-11-20T12:05:59.180Z,4.02
2017-11-20T12:08:26.764Z,4.13
2017-11-20T12:10:54.343Z,3.94
2017-11-20T12:13:21.927Z,3.96
2017-11-20T12:15:49.511Z,4.03
2017-11-20T12:18:17.234Z,4.00
2017-11-20T12:20:44.833Z,3.98
2017-11-20T12:23:12.405Z,3.96
2017-11-20T12:25:40.050Z,4.06
2017-11-20T12:28:07.615Z,4.16
2017-11-20T12:30:35.194Z,4.25
2017-11-20T12:33:02.780Z,4.22
2017-11-20T12:35:30.385Z,4.11
2017-11-20T12:37:57.968Z,4.32
2017-11-20T12:40:25.542Z,4.18
2017-11-20T12:42:53.098Z,4.22
2017-11-20T12:45:20.655Z,4.26
2017-11-20T12:47:48.270Z,4.13
2017-11-20T12:50:15.848Z,4.18
2017-11-20T12:52:43.458Z,4.13
2017-11-20T12:55:11.312Z,4.15
2017-11-20T12:57:38.950Z,4.08
2017-11-20T13:00:06.614Z,4.05
2017-11-20T13:02:34.537Z,4.04
2017-11-20T13:05:02.126Z,3.99
2017-11-20T13:07:29.671Z,3.99
2017-11-20T13:09:57.259Z,3.97
2017-11-20T13:12:24.863Z,4.00
2017-11-20T13:14:52.418Z,4.01
2017-11-20T13:17:20.003Z,3.95
2017-11-20T13:19:47.662Z,3.96
2017-11-20T13:22:15.293Z,3.89
2017-11-20T13:24:42.943Z,3.95
2017-11-20T13:27:10.594Z,3.78
2017-11-20T13:29:38.196Z,3.76
2017-11-20T13:32:05.793Z,3.82
2017-11-20T13:34:33.428Z,3.79
2017-11-20T13:37:01.090Z,3.86
2017-11-20T13:39:28.681Z,3.81
2017-11-20T13:41:56.237Z,3.84
2017-11-20T13:44:24.008Z,3.94
2017-11-20T13:46:51.804Z,3.90
2017-11-20T13:49:19.357Z,3.88
2017-11-20T13:51:47.014Z,3.78
2017-11-20T13:54:14.702Z,3.71
2017-11-20T13:56:42.244Z,3.73
2017-11-20T13:59:09.825Z,3.66
2017-11-20T14:01:37.424Z,3.66
2017-11-20T14:04:04.999Z,3.70
2017-11-20T14:06:32.566Z,3.78
2017-11-20T14:09:06.946Z,3.76
2017-11-20T14:11:34.645Z,3.67
2017-11-20T14:14:05.197Z,3.60
2017-11-20T14:16:32.808Z,3.60
2017-11-20T14:19:00.359Z,3.55
2017-11-20T14:21:27.958Z,3.55
2017-11-20T14:23:55.607Z,3.64
2017-11-20T14:26:23.408Z,3.67
2017-11-20T14:28:51.126Z,3.59
2017-11-20T14:31:18.826Z,3.62
2017-11-20T14:33:46.446Z,3.65
2017-11-20T14:36:14.043Z,3.57
2017-11-20T14:38:41.656Z,3.56
2017-11-20T14:41:09.306Z,3.49
2017-11-20T14:43:36.966Z,3.48
2017-11-20T14:46:04.775Z,3.51
2017-11-20T14:48:38.250Z,3.55
2017-11-20T14:54:07.260Z,3.35
2017-11-20T14:56:34.829Z,3.49
2017-11-20T14:59:02.447Z,3.49
2017-11-20T15:01:33.405Z,3.50
2017-11-20T15:04:01.010Z,3.45
2017-11-20T15:06:28.583Z,3.43
2017-11-20T15:08:56.177Z,3.41
2017-11-20T15:11:23.847Z,3.40
2017-11-20T15:13:51.472Z,3.36
2017-11-20T15:16:19.064Z,3.35
2017-11-20T15:18:46.616Z,3.38
2017-11-20T15:21:14.293Z,3.30
2017-11-20T15:23:41.942Z,3.32
2017-11-20T15:26:09.569Z,3.34
2017-11-20T15:28:37.169Z,3.26
2017-11-20T15:31:06.314Z,3.14
2017-11-20T15:33:33.993Z,2.95
2017-11-20T15:36:02.034Z,2.83
2017-11-20T15:38:29.663Z,2.79
2017-11-20T15:40:57.315Z,2.66
2017-11-20T15:43:24.977Z,2.60
2017-11-20T15:45:53.146Z,2.58
2017-11-20T15:48:20.706Z,2.55
2017-11-20T15:50:48.253Z,2.55
2017-11-20T15:53:15.854Z,2.45
2017-11-20T15:55:43.423Z,2.38
2017-11-20T15:58:10.966Z,2.37
2017-11-20T16:00:38.564Z,2.31
2017-11-20T16:03:06.570Z,2.27
2017-11-20T16:05:34.921Z,2.17
2017-11-20T16:08:02.542Z,2.18
2017-11-20T16:10:30.095Z,2.10
2017-11-20T16:12:58.114Z,2.03
2017-11-20T16:15:25.760Z,1.99
2017-11-20T16:17:53.600Z,2.02
2017-11-20T16:20:21.143Z,2.01
2017-11-20T16:22:48.748Z,1.98
2017-11-20T16:25:16.311Z,1.91
2017-11-20T16:27:43.864Z,1.93
2017-11-20T16:30:11.465Z,1.91
2017-11-20T16:32:39.026Z,1.85
2017-11-20T16:35:06.589Z,1.89
2017-11-20T16:37:34.141Z,1.92
2017-11-20T16:40:01.715Z,1.89
2017-11-20T16:42:29.298Z,1.90
2017-11-20T16:44:56.881Z,1.89
2017-11-20T16:47:24.500Z,1.94
2017-11-20T16:49:52.064Z,1.94
2017-11-20T16:52:19.619Z,1.95
2017-11-20T16:54:47.215Z,1.97
2017-11-20T16:57:26.609Z,1.91
2017-11-20T16:59:54.215Z,1.88
2017-11-20T17:02:33.569Z,1.88
2017-11-20T17:05:01.173Z,1.87
2017-11-20T17:07:29.445Z,1.87
2017-11-20T17:09:57.033Z,1.86
2017-11-20T17:12:24.601Z,1.83
2017-11-20T17:14:52.153Z,1.84
2017-11-20T17:17:19.734Z,1.80
2017-11-20T17:19:47.316Z,1.80
2017-11-20T17:22:14.867Z,1.79
2017-11-20T17:24:42.483Z,1.83
2017-11-20T17:27:10.403Z,1.80
2017-11-20T17:29:37.976Z,1.82
2017-11-20T17:32:05.539Z,1.76
2017-11-20T17:34:33.152Z,1.77
2017-11-20T17:37:00.718Z,1.67
2017-11-20T17:39:29.148Z,1.59
2017-11-20T17:41:56.765Z,1.55
2017-11-20T17:44:24.310Z,1.50
2017-11-20T17:46:51.875Z,1.51
2017-11-20T17:49:19.478Z,1.45
2017-11-20T17:51:47.040Z,1.39
2017-11-20T17:54:14.618Z,1.38
2017-11-20T17:56:42.168Z,1.29
2017-11-20T17:59:09.759Z,1.32
2017-11-20T18:01:37.362Z,1.31
2017-11-20T18:04:04.926Z,1.33
2017-11-20T18:06:32.511Z,1.30
2017-11-20T18:09:00.110Z,1.22
2017-11-20T18:11:27.666Z,1.23
2017-11-20T18:13:55.217Z,1.20
2017-11-20T18:16:22.919Z,1.23
2017-11-20T18:18:50.574Z,1.15
2017-11-20T18:21:18.156Z,1.08
2017-11-20T18:23:45.836Z,1.08
2017-11-20T18:26:13.550Z,1.03
2017-11-20T18:28:41.122Z,1.05
2017-11-20T18:31:08.916Z,1.05
2017-11-20T18:33:36.532Z,1.02
2017-11-20T18:36:04.282Z,1.05
2017-11-20T18:38:31.837Z,1.07
2017-11-20T18:40:59.410Z,1.09
2017-11-20T18:43:26.995Z,1.08
2017-11-20T18:45:54.591Z,1.08
2017-11-20T18:48:22.786Z,1.14
2017-11-20T18:50:50.345Z,1.19
2017-11-20T18:53:17.955Z,1.20
2017-11-20T18:55:45.560Z,1.21
2017-11-20T18:58:13.189Z,1.21
2017-11-20T19:00:52.645Z,1.15
2017-11-20T19:03:29.267Z,1.22
2017-11-20T19:06:08.685Z,1.18
2017-11-20T19:11:38.022Z,1.20
2017-11-20T19:14:05.638Z,1.19
2017-11-20T19:16:33.215Z,1.14
2017-11-20T19:19:00.886Z,1.17
2017-11-20T19:21:28.471Z,1.18
2017-11-20T19:23:56.028Z,1.27
2017-11-20T19:26:23.672Z,1.26
2017-11-20T19:28:51.299Z,1.32
2017-11-20T19:31:18.866Z,1.30
2017-11-20T19:33:46.598Z,1.31
2017-11-20T19:36:14.185Z,1.37
2017-11-20T19:38:42.304Z,1.41
2017-11-20T19:41:09.879Z,1.37
2017-11-20T19:43:37.448Z,1.35
2017-11-20T19:46:05.115Z,1.29
2017-11-20T19:48:32.718Z,1.26
2017-11-20T19:51:01.073Z,1.23
2017-11-20T19:53:28.661Z,1.20
2017-11-20T19:55:56.254Z,1.21
2017-11-20T19:58:23.855Z,1.19
2017-11-20T20:00:51.459Z,1.15
2017-11-20T20:03:19.027Z,1.11
2017-11-20T20:05:46.584Z,1.08
2017-11-20T20:08:14.162Z,1.09
2017-11-20T20:10:41.749Z,1.06
2017-11-20T20:13:09.534Z,1.04
2017-11-20T20:15:44.062Z,1.03
2017-11-20T20:18:11.660Z,1.03
2017-11-20T20:20:39.243Z,1.04
2017-11-20T20:23:06.826Z,1.01
2017-11-20T20:25:34.429Z,1.01
2017-11-20T20:28:01.988Z,1.03
2017-11-20T20:30:29.551Z,1.04
2017-11-20T20:32:57.120Z,1.06
2017-11-20T20:35:24.695Z,1.14
2017-11-20T20:37:52.393Z,1.19
2017-11-20T20:40:20.012Z,1.11
2017-11-20T20:42:47.581Z,1.09
2017-11-20T20:45:15.143Z,1.08
2017-11-20T20:47:42.706Z,1.09
2017-11-20T20:50:10.277Z,1.02
2017-11-20T20:52:37.841Z,1.10
2017-11-20T20:55:05.471Z,1.09
2017-11-20T20:57:33.044Z,0.97
2017-11-20T21:00:00.650Z,0.93
2017-11-20T21:02:28.222Z,0.94
2017-11-20T21:04:55.806Z,0.93
2017-11-20T21:07:23.618Z,0.93
2017-11-20T21:09:56.855Z,0.95
2017-11-20T21:12:24.463Z,0.86
2017-11-20T21:14:52.024Z,0.84
2017-11-20T21:17:19.617Z,0.86
2017-11-20T21:19:47.179Z,0.86
2017-11-20T21:22:14.735Z,0.86
2017-11-20T21:24:42.336Z,0.85
2017-11-20T21:27:10.148Z,0.85
2017-11-20T21:29:37.730Z,0.87
2017-11-20T21:32:05.318Z,0.82
2017-11-20T21:34:32.865Z,0.85
2017-11-20T21:37:00.446Z,0.84
2017-11-20T21:39:28.574Z,0.85
2017-11-20T21:41:56.119Z,0.87
2017-11-20T21:44:23.689Z,0.83
2017-11-20T21:46:51.250Z,0.79
2017-11-20T21:49:18.805Z,0.79
2017-11-20T21:51:46.366Z,0.81
2017-11-20T21:54:13.951Z,0.82
2017-11-20T21:56:41.707Z,0.87
2017-11-20T21:59:09.301Z,0.90
2017-11-20T22:01:36.874Z,0.95
2017-11-20T22:04:04.430Z,0.95
2017-11-20T22:06:32.010Z,0.97
2017-11-20T22:08:59.618Z,0.96
2017-11-20T22:11:27.175Z,0.96
2017-11-20T22:13:54.721Z,0.97
2017-11-20T22:16:22.326Z,1.01
2017-11-20T22:18:49.890Z,0.98
2017-11-20T22:21:17.479Z,1.04
2017-11-20T22:23:45.034Z,0.99
2017-11-20T22:26:12.594Z,0.97
2017-11-20T22:28:40.146Z,0.98
2017-11-20T22:31:07.863Z,1.01
2017-11-20T22:33:35.416Z,1.00
2017-11-20T22:36:03.363Z,1.02
2017-11-20T22:38:31.083Z,1.08
2017-11-20T22:40:58.630Z,1.09
2017-11-20T22:43:26.202Z,1.05
2017-11-20T22:45:53.753Z,1.06
2017-11-20T22:48:21.294Z,1.05
2017-11-20T22:50:48.864Z,1.03
2017-11-20T22:53:16.410Z,1.04
2017-11-20T22:55:43.964Z,1.00
2017-11-20T22:58:11.601Z,0.96
2017-11-20T23:00:39.139Z,0.97
2017-11-20T23:03:08.155Z,0.97
2017-11-20T23:05:35.760Z,0.97
2017-11-20T23:08:03.291Z,0.95
2017-11-20T23:10:31.543Z,1.01
2017-11-20T23:12:59.141Z,1.04
2017-11-20T23:15:26.719Z,1.06
2017-11-20T23:17:54.276Z,1.07
2017-11-20T23:20:22.006Z,1.05
2017-11-20T23:22:49.550Z,1.11
2017-11-20T23:25:17.094Z,1.15
2017-11-20T23:27:44.688Z,1.14
2017-11-20T23:30:12.239Z,1.14
2017-11-20T23:32:39.785Z,1.19
2017-11-20T23:35:07.385Z,1.24
2017-11-20T23:37:34.976Z,1.23
2017-11-20T23:40:02.610Z,1.20
2017-11-20T23:42:30.214Z,1.25
2017-11-20T23:44:57.751Z,1.25
2017-11-20T23:47:25.301Z,1.23
2017-11-20T23:49:52.859Z,1.23
2017-11-20T23:52:20.452Z,1.23
2017-11-20T23:54:48.002Z,1.26
2017-11-20T23:57:15.537Z,1.30
2017-11-20T23:59:43.133Z,1.20
